WEATHER DATA

YESTERDAY
Time Temp. Dewp. Hum. Wind dir Wind speed Wind gust Bar. 1h Prec. 24h Prec.
00:00 -0.3 -1.3 92 270 0.3 0.8 1007.1 0.1010 0.1000
00:19 -0.3 -1.3 92 270 0.3 0.8 1007 0.1010 0.1000
00:29 -0.4 -1.4 92 315 0.3 0.8 1007.2 0.1010 0.1000
00:40 -0.5 -1.5 92 302 0.3 0.8 1007.4 0.1010 0.1000
00:50 -0.6 -1.7 91 270 0.3 0.8 1007.4 0.0000 0.1000
01:00 -0.7 -1.8 91 270 0.3 0.8 1007.7 0.0000 0.1000
01:11 -0.7 -1.7 92 270 0.3 0.8 1008 0.0000 0.1000
01:20 -0.6 -1.6 92 239 0.3 0.8 1008 0.0000 0.1000
01:30 -0.6 -1.6 92 315 0.3 0.8 1008 0.0000 0.1000
01:40 -0.5 -1.5 92 0 0.8 1008.1 0.0000 0.1000
01:51 -0.5 -1.5 92 270 0.3 0.8 1008.2 0.0000 0.1000
02:01 -0.5 -1.5 92 270 0.3 0.8 1008.2 0.0000 0.1000
02:11 -0.4 -1.4 92 230 0.3 0.8 1008.1 0.0000 0.1000
02:21 -0.5 -1.5 92 270 0.3 0.8 1008.1 0.0000 0.1000
02:31 -0.5 -1.5 92 270 0.3 0.8 1008.1 0.0000 0.1000
02:41 -0.4 -1.4 92 0 0.8 1008.2 0.0000 0.1000
02:51 -0.4 -1.4 92 232 0.3 0.8 1008.2 0.0000 0.1000
03:02 -0.4 -1.4 92 270 0.3 0.8 1008.1 0.0000 0.1000
03:12 -0.4 -1.4 92 270 0.3 0.8 1008.1 0.0000 0.1000
03:22 -0.4 -1.4 92 240 0.3 0.8 1008.3 0.0000 0.1000
03:31 -0.3 -1.3 92 270 0.3 0.8 1008.2 0.0000 0.1000
03:42 -0.3 -1.3 92 0 0.8 1008.2 0.0000 0.1000
03:52 -0.3 -1.3 92 0 0.8 1008.1 0.0000 0.1000
04:02 -0.3 -1.3 92 270 0.3 1.1 1008.1 0.0000 0.1000
04:12 -0.3 -1.3 92 0 0.3 1008.2 0.0000 0.1000
04:22 -0.3 -1.3 92 0 0.3 1008.1 0.0000 0.1000
04:32 -0.4 -1.4 92 0 0.8 1008 0.0000 0.1000
04:42 -0.5 -1.6 91 0 0.8 1008 0.0000 0.1000
04:53 -0.6 -1.7 91 270 0.3 0.8 1008.2 0.0000 0.1000
05:03 -0.7 -1.8 91 307 0.3 0.8 1008.3 0.0000 0.1000
05:13 -0.8 -1.9 91 270 0.3 0.8 1008.6 0.0000 0.1000
05:23 -0.7 -1.8 91 240 0.3 1.1 1008.5 0.0000 0.1000
05:33 -0.7 -1.7 92 220 0.3 1.1 1008.5 0.0000 0.1000
05:43 -0.6 -1.6 92 225 0.3 1.1 1008.6 0.0000 0.1000
05:53 -0.5 -1.5 92 232 0.3 0.8 1008.9 0.0000 0.1000
06:04 -0.4 -1.4 92 0 0.3 1008.8 0.0000 0.1000
06:14 -0.4 -1.4 92 339 0.3 1.1 1008.7 0.0000 0.1000
06:23 -0.4 -1.4 92 315 0.3 0.8 1008.7 0.0000 0.1000
06:33 -0.3 -1.3 92 323 0.3 0.8 1009 0.0000 0.1000
06:44 -0.3 -1.3 92 270 0.3 0.8 1008.9 0.0000 0.1000
06:54 -0.3 -1.3 92 324 0.3 0.8 1009.3 0.0000 0.1000
07:04 -0.2 -1.2 92 270 0.3 0.8 1009.3 0.0000 0.1000
07:14 -0.2 -1.2 92 0 0.8 1009.1 0.0000 0.1000
07:24 -0.2 -1.2 92 333 0.3 0.8 1009.5 0.0000 0.1000
07:34 -0.2 -1.2 92 270 0.3 0.8 1009.5 0.0000 0.1000
07:44 -0.1 -1.1 92 0 0.3 1009.6 0.0000 0.1000
07:55 -0.1 -1.1 92 0 0.8 1009.8 0.0000 0.1000
08:05 0 -1 92 0 0.8 1009.7 0.0000 0.1000
08:14 0 -1.1 91 270 0.3 0.8 1009.8 0.0000 0.1000
08:25 0 -1.1 91 26 0.3 0.8 1010.1 0.0000 0.1000
08:35 0 -1.1 91 0 0.8 1010.1 0.0000 0.1000
08:45 0 -1.1 91 270 0.3 0.8 1010.1 0.0000 0.1000
08:55 -0.2 -1.5 90 315 0.3 0.8 1010.1 0.0000 0.1000
09:06 -0.2 -1.5 90 0 0.3 1009.8 0.0000 0.1000
09:15 0 -1.1 91 194 0.3 0.8 1009.9 0.0000 0.1000
09:25 0.2 -1 91 90 0.3 0.8 1009.9 0.0000 0.1000
09:35 0.5 -0.7 91 219 0.3 0.8 1010.2 0.0000 0.1000
09:46 0.8 -0.6 90 225 0.3 0.8 1010.1 0.1010 0.2000
09:56 1.4 0 90 206 0.3 1.1 1009.9 0.2020 0.3000
10:06 1.7 0.1 89 180 0.3 1.4 1010.1 0.3030 0.4000
10:16 1.8 0 88 211 0.8 1.4 1010.2 0.4040 0.5000
10:26 2.1 0.5 89 209 0.3 1.4 1010.3 0.5050 0.6000
10:36 2.3 0.5 88 225 0.8 2.2 1010.3 0.7070 0.8000
10:46 2.2 0.4 88 209 0.3 1.4 1010.2 0.7070 0.9000
10:57 2.2 0.3 87 225 0.8 3.1 1010.3 0.6060 0.9000
11:06 2.1 0.2 87 249 0.8 2.2 1010.1 0.6060 1.0000
11:16 2.1 0.2 87 212 0.8 2.2 1010.3 0.6060 1.1000
11:27 2 0.1 87 189 0.3 1.4 1010.3 0.6060 1.2000
11:37 2 0.1 87 225 0.8 1.7 1010.2 0.5050 1.3000
11:47 2.1 0.2 87 222 0.8 2.2 1010.2 0.5050 1.4000
11:57 2.3 0.5 88 220 0.8 1.7 1010.1 0.6060 1.5000
12:07 2.3 0.4 87 225 0.3 1.7 1010.1 0.6060 1.6000
12:17 2.3 0.4 87 214 0.3 1.4 1009.8 0.6060 1.7000
12:27 2.3 0.4 87 270 0.3 1.1 1010.1 0.6060 1.8000
12:37 2.4 0.5 87 183 0.3 0.8 1009.6 0.6060 1.9000
12:48 2.5 0.6 87 228 0.3 1.7 1009.6 0.6060 2.0000
12:58 2.6 0.5 86 236 0.3 0.8 1009.6 0.6060 2.1000
13:07 2.7 0.6 86 206 0.3 0.8 1009.6 0.7070 2.3000
13:18 2.8 0.7 86 219 0.3 1.1 1009.6 0.8080 2.5000
13:28 2.8 0.7 86 232 0.3 1.1 1009.5 0.8080 2.6000
13:38 3 1.1 87 270 0.3 1.1 1009.5 0.9090 2.8000
13:48 3 1.1 87 270 0.3 1.4 1009.6 0.8080 2.8000
13:59 3.1 1.1 87 218 0.8 1.7 1009.5 0.8080 2.9000
14:08 3 0.9 86 270 0.3 1.4 1009.4 0.7070 3.0000
14:18 3 1.1 87 212 0.3 1.1 1009.6 0.6060 3.1000
14:28 2.9 0.8 86 237 0.3 1.1 1009.5 0.6060 3.2000
14:39 2.7 0.6 86 236 0.3 0.8 1009.7 0.5050 3.3000
14:49 2.6 0.5 86 221 0.3 1.1 1009.5 0.5050 3.3000
14:58 2.6 0.7 87 232 0.3 1.1 1009.7 0.5050 3.4000
15:09 2.6 0.7 87 270 0.3 1.1 1009.5 0.4040 3.4000
15:19 2.5 0.6 87 225 0.3 1.1 1009.5 0.4040 3.5000
15:29 2.4 0.5 87 209 0.3 1.1 1009.5 0.3030 3.5000
15:39 2.1 0.2 87 270 0.3 0.8 1009.5 0.2020 3.5000
15:50 1.9 0 87 270 0.3 1.1 1009.3 0.2020 3.5000
15:59 1.8 -0.1 87 183 0.3 1.1 1009.3 0.1010 3.5000
16:09 1.7 -0.1 88 174 0.3 1.1 1009 0.2020 3.6000
16:20 1.6 -0.1 88 154 0.3 1.4 1008.9 0.1010 3.6000
16:30 1.5 -0.2 88 270 0.3 0.8 1009.3 0.1010 3.6000
16:40 1.4 -0.3 88 270 0.3 1.1 1009.5 0.1010 3.6000
16:50 1.3 -0.3 89 238 0.3 1.4 1009.5 0.1010 3.6000
17:00 1.2 -0.4 89 270 0.3 1.4 1009.6 0.0000 3.6000
17:10 1.1 -0.4 89 270 0.3 1.4 1009.7 0.0000 3.6000
17:20 1.1 -0.3 90 220 0.3 1.1 1009.9 0.0000 3.6000
17:30 1.2 -0.2 90 216 0.3 0.8 1009.6 0.0000 3.6000
17:41 1.2 -0.2 90 236 0.3 0.8 1009.8 0.0000 3.6000
17:51 1.2 -0.2 90 239 0.3 0.8 1009.7 0.0000 3.6000
18:00 1.2 -0.2 90 0 0.8 1009.6 0.0000 3.6000
18:11 1.2 -0.2 90 270 0.3 0.8 1009.5 0.1010 3.7000
18:21 1.1 -0.3 90 201 0.3 0.8 1009.4 0.1010 3.7000
18:31 1.1 -0.4 89 270 0.3 1.4 1009.5 0.1010 3.7000
18:41 1 -0.4 90 154 0.8 1.7 1009.7 0.1010 3.7000
18:51 1 -0.4 90 270 0.3 0.8 1009.9 0.1010 3.7000
19:01 0.9 -0.5 90 215 0.3 1.7 1009.8 0.1010 3.7000
19:11 0.9 -0.5 90 270 0.3 0.8 1009.8 0.0000 3.7000
19:22 0.9 -0.5 90 270 0.3 0.8 1010.1 0.0000 3.7000
19:32 0.9 -0.5 90 225 0.3 0.8 1009.9 0.0000 3.7000
19:42 0.9 -0.5 90 336 0.3 0.8 1009.9 0.0000 3.7000
19:51 0.9 -0.5 90 306 0.3 0.8 1009.8 0.0000 3.7000
20:02 0.9 -0.5 90 270 0.3 0.8 1009.7 0.0000 3.7000
20:12 0.9 -0.5 90 270 0.3 0.8 1009.7 0.0000 3.7000
20:22 0.9 -0.5 90 236 0.3 0.8 1009.6 0.0000 3.7000
20:32 0.8 -0.6 90 232 0.3 0.8 1009.6 0.0000 3.7000
20:43 0.8 -0.6 90 204 0.3 0.8 1009.6 0.0000 3.7000
20:52 0.7 -0.7 90 270 0.3 0.8 1009.9 0.0000 3.7000
21:02 0.7 -0.7 90 230 0.3 1.1 1009.8 0.0000 3.7000
21:13 0.7 -0.7 90 225 0.3 0.8 1009.9 0.0000 3.7000
21:23 0.8 -0.6 90 225 0.3 0.8 1009.7 0.0000 3.7000
21:33 0.8 -0.6 90 237 0.3 0.8 1009.6 0.0000 3.7000
21:43 0.8 -0.6 90 225 0.3 0.8 1009.7 0.0000 3.7000
21:53 0.7 -0.7 90 225 0.3 0.8 1009.6 0.0000 3.7000
22:03 0.7 -0.7 90 270 0.3 0.8 1009.6 0.0000 3.7000
22:13 0.7 -0.5 91 180 0.3 1.1 1009.5 0.0000 3.7000
22:24 0.6 -0.7 90 225 0.3 0.8 1009.5 0.0000 3.7000
22:34 0.5 -0.7 91 185 0.3 0.8 1009.5 0.0000 3.7000
22:43 0.5 -0.7 91 0 0.8 1009.3 0.0000 3.7000
22:53 0.4 -0.8 91 270 0.3 0.8 1009.3 0.0000 3.7000
23:04 0.4 -0.8 91 210 0.3 0.8 1009.4 0.0000 3.7000
23:14 0.3 -0.9 91 270 0.3 0.8 1009.1 0.0000 3.7000
23:24 0.4 -0.8 91 0 0.8 1009.5 0.1010 3.8000
23:34 0.3 -0.9 91 270 0.3 0.8 1009.4 0.1010 3.8000
23:44 0.3 -0.9 91 270 0.3 0.8 1009.1 0.1010 3.8000
23:54 0.3 -0.9 91 0 0.8 1009 0.1010

DAY STATISTIC

2019-11-14
TEMPERATURE
AVERAGE
0.8
HIGH
3.1
13:59
LOW
-0.8
05:13
PRESSURE
AVERAGE
1009.3
HIGH
1010.3
10:26
LOW
1007.0
00:19
DEWPOINT
AVERAGE
-0.6
HIGH
1.1
13:38
LOW
-1.9
05:13
HUMIDITY
AVERAGE
90
HIGH
92
00:00
LOW
86
12:58
WIND SPEED
AVERAGE
0.3
HIGH
0.8
10:16
WIND GUST
AVERAGE
1.0
HIGH
3.1
10:57
WIND DIRECTION
PREVAILING
SW
36.6%
N
0.7
NE
0.7
E
0.7
SE
1.4
S
7.0
SW
36.6
W
31.7
NW
7.7
PRECIPITATION
RAIN HOUR
0.9
RAIN DAY
3.8
TEMPERATURE (°C)
LOW
-0.8
HIGH
3.1
AVERAGE
0.8
PRESSURE (hpa)
LOW
1007.0
HIGH
1010.3
AVERAGE
1009.3
DEVICE